DW7431 Cala Millor ES current weather conditions

sailwx.info

Wind from 247 at 8 knots gusting 8

Air temperature 16.7° C
Dewpoint 10.7° C

Last reported at 2015-Jan-29 11:01 UTC.
Time now 2015-Jan-29 14:29 UTC

Location: N 39°36' E 003°22'.
View on Google Maps.

See reports from other nearby stations

  
Tides and Currents Weather Stations Pressure Air Temp Water Temp Dewpoint Dewpoint Depression Visibility Wind Speed Wind Dir Waves Ship Positions
date/time (UTC)wind fromknots sea level pressurealtimeterstation pressurevisibilityair tempwater tempwave heightnotes
2015-Jan-29 11:01 247 8 gusting 8 16.7
2015-Jan-29 05:01 315 4 gusting 5 8.3
2015-Jan-29 04:01 315 3 gusting 3 8.3
2015-Jan-29 02:01 315 2 gusting 1 8.9
2015-Jan-29 00:01 315 4 gusting 8 9.4
2015-Jan-28 23:01 315 3 gusting 3 10.0
2015-Jan-28 22:01 315 3 gusting 3 10.6
2015-Jan-28 21:01 337 3 gusting 4 11.1
2015-Jan-28 20:01 315 4 gusting 4 11.7
2015-Jan-28 19:01 292 1 gusting 3 12.2
2015-Jan-28 18:01 315 1 gusting 1 13.3
2015-Jan-28 16:01 022 1 gusting 0 13.9
2015-Jan-28 15:01 067 1 gusting 1 13.9
2015-Jan-28 14:01 067 4 gusting 6 13.3
2015-Jan-28 13:01 112 3 gusting 8 13.3
2015-Jan-28 12:01 270 13.9
2015-Jan-28 09:01 270 11.7
2015-Jan-28 05:01 270 10.6
2015-Jan-28 04:01 270 10.6
2015-Jan-28 02:01 270 11.1
2015-Jan-28 01:01 270 11.7
2015-Jan-27 23:01 270 12.2
2015-Jan-27 21:01 270 12.8
2015-Jan-27 20:01 270 13.9
2015-Jan-27 19:01 270 15.0
2015-Jan-27 18:01 270 16.7
2015-Jan-27 16:01 315 6 gusting 8 19.4
2015-Jan-27 15:01 292 9 gusting 10 21.7
2015-Jan-27 14:01 292 9 gusting 10 22.2